sensor_id;sensor_type;location;lat;lon;timestamp;pressure;altitude;pressure_sealevel;temperature;humidity
41800;BME280;27468;47.460;19.034;2023-02-04T00:00:10;100075.47;;;5.02;75.66
41800;BME280;27468;47.460;19.034;2023-02-04T00:02:36;100020.66;;;4.79;75.75
41800;BME280;27468;47.460;19.034;2023-02-04T00:05:03;100074.59;;;5.12;75.42
41800;BME280;27468;47.460;19.034;2023-02-04T00:07:28;100078.06;;;5.13;75.50
41800;BME280;27468;47.460;19.034;2023-02-04T00:09:54;100005.00;;;4.79;75.02
41800;BME280;27468;47.460;19.034;2023-02-04T00:12:19;100046.75;;;5.01;75.05
41800;BME280;27468;47.460;19.034;2023-02-04T00:14:44;100051.97;;;5.04;75.14
41800;BME280;27468;47.460;19.034;2023-02-04T00:17:10;100037.16;;;5.01;75.63
41800;BME280;27468;47.460;19.034;2023-02-04T00:19:38;100057.19;;;5.05;75.51
41800;BME280;27468;47.460;19.034;2023-02-04T00:22:04;100004.13;;;4.82;75.41
41800;BME280;27468;47.460;19.034;2023-02-04T00:24:31;100047.63;;;4.95;75.89
41800;BME280;27468;47.460;19.034;2023-02-04T00:26:56;100065.00;;;5.08;75.80
41800;BME280;27468;47.460;19.034;2023-02-04T00:29:22;100030.22;;;4.89;76.13
41800;BME280;27468;47.460;19.034;2023-02-04T00:31:47;100053.69;;;5.05;76.05
41800;BME280;27468;47.460;19.034;2023-02-04T00:34:12;100025.00;;;4.89;76.35
41800;BME280;27468;47.460;19.034;2023-02-04T00:36:38;100025.84;;;4.93;76.39
41800;BME280;27468;47.460;19.034;2023-02-04T00:39:03;100039.75;;;5.03;76.19
41800;BME280;27468;47.460;19.034;2023-02-04T00:41:29;100019.75;;;4.98;76.03
41800;BME280;27468;47.460;19.034;2023-02-04T00:43:54;100021.50;;;5.00;76.23
41800;BME280;27468;47.460;19.034;2023-02-04T00:46:19;99989.28;;;4.91;75.70
41800;BME280;27468;47.460;19.034;2023-02-04T00:48:45;99937.13;;;4.62;75.44
41800;BME280;27468;47.460;19.034;2023-02-04T00:51:10;99971.91;;;4.86;75.47
41800;BME280;27468;47.460;19.034;2023-02-04T00:53:36;99943.19;;;4.80;75.22
41800;BME280;27468;47.460;19.034;2023-02-04T00:56:01;99943.19;;;4.80;74.74
41800;BME280;27468;47.460;19.034;2023-02-04T00:58:27;99976.19;;;5.07;74.83
41800;BME280;27468;47.460;19.034;2023-02-04T01:00:52;99975.34;;;5.00;74.44
41800;BME280;27468;47.460;19.034;2023-02-04T01:03:18;99999.59;;;5.23;74.56
41800;BME280;27468;47.460;19.034;2023-02-04T01:05:43;99983.09;;;5.20;74.11
41800;BME280;27468;47.460;19.034;2023-02-04T01:08:08;99997.00;;;5.23;74.37
41800;BME280;27468;47.460;19.034;2023-02-04T01:10:34;99943.09;;;5.01;74.00
41800;BME280;27468;47.460;19.034;2023-02-04T01:12:59;100002.16;;;5.34;73.74
41800;BME280;27468;47.460;19.034;2023-02-04T01:15:25;99941.38;;;5.02;73.53
41800;BME280;27468;47.460;19.034;2023-02-04T01:17:50;99937.91;;;4.95;73.75
41800;BME280;27468;47.460;19.034;2023-02-04T01:20:16;99990.84;;;5.30;73.59
41800;BME280;27468;47.460;19.034;2023-02-04T01:22:41;100008.25;;;5.36;73.55
41800;BME280;27468;47.460;19.034;2023-02-04T01:25:07;99998.66;;;5.43;73.29
41800;BME280;27468;47.460;19.034;2023-02-04T01:27:33;99937.84;;;5.12;73.13
41800;BME280;27468;47.460;19.034;2023-02-04T01:29:58;99978.59;;;5.43;72.99
41800;BME280;27468;47.460;19.034;2023-02-04T01:32:24;99983.81;;;5.48;72.94
41800;BME280;27468;47.460;19.034;2023-02-04T01:34:49;99984.66;;;5.48;73.17
41800;BME280;27468;47.460;19.034;2023-02-04T01:37:14;99903.88;;;5.13;72.58
41800;BME280;27468;47.460;19.034;2023-02-04T01:39:40;99959.41;;;5.46;72.61
41800;BME280;27468;47.460;19.034;2023-02-04T01:42:05;99993.34;;;5.56;72.56
41800;BME280;27468;47.460;19.034;2023-02-04T01:44:31;99957.72;;;5.34;72.41
41800;BME280;27468;47.460;19.034;2023-02-04T01:46:57;99992.44;;;5.62;72.16
41800;BME280;27468;47.460;19.034;2023-02-04T01:49:23;99957.72;;;5.37;71.89
41800;BME280;27468;47.460;19.034;2023-02-04T01:51:49;100014.25;;;5.59;72.42
41800;BME280;27468;47.460;19.034;2023-02-04T01:54:15;99973.34;;;5.48;72.18
41800;BME280;27468;47.460;19.034;2023-02-04T01:56:44;99999.44;;;5.58;72.53
41800;BME280;27468;47.460;19.034;2023-02-04T01:59:13;100011.63;;;5.61;72.43
41800;BME280;27468;47.460;19.034;2023-02-04T02:01:42;100010.72;;;5.65;72.07
41800;BME280;27468;47.460;19.034;2023-02-04T02:04:11;100010.78;;;5.53;71.93
41800;BME280;27468;47.460;19.034;2023-02-04T02:06:38;100027.31;;;5.62;71.90
41800;BME280;27468;47.460;19.034;2023-02-04T02:09:05;100032.53;;;5.66;71.38
41800;BME280;27468;47.460;19.034;2023-02-04T02:11:31;99999.47;;;5.52;71.22
41800;BME280;27468;47.460;19.034;2023-02-04T02:13:56;99966.41;;;5.41;70.90
41800;BME280;27468;47.460;19.034;2023-02-04T02:16:22;100032.53;;;5.66;71.10
41800;BME280;27468;47.460;19.034;2023-02-04T02:18:48;100037.75;;;5.67;70.94
41800;BME280;27468;47.460;19.034;2023-02-04T02:21:15;100023.78;;;5.68;71.16
41800;BME280;27468;47.460;19.034;2023-02-04T02:23:48;100030.75;;;5.69;70.88
41800;BME280;27468;47.460;19.034;2023-02-04T02:26:15;100034.25;;;5.71;71.07
41800;BME280;27468;47.460;19.034;2023-02-04T02:28:41;99971.66;;;5.38;71.13
41800;BME280;27468;47.460;19.034;2023-02-04T02:31:07;100038.59;;;5.72;71.36
41800;BME280;27468;47.460;19.034;2023-02-04T02:33:32;100033.38;;;5.69;71.28
41800;BME280;27468;47.460;19.034;2023-02-04T02:35:58;100046.44;;;5.69;71.50
41800;BME280;27468;47.460;19.034;2023-02-04T02:38:24;99959.50;;;5.32;71.40
41800;BME280;27468;47.460;19.034;2023-02-04T02:40:49;100036.88;;;5.68;71.38
41800;BME280;27468;47.460;19.034;2023-02-04T02:43:19;99972.50;;;5.41;71.21
41800;BME280;27468;47.460;19.034;2023-02-04T02:45:46;100025.53;;;5.71;70.76
41800;BME280;27468;47.460;19.034;2023-02-04T02:48:12;100014.22;;;5.67;70.70
41800;BME280;27468;47.460;19.034;2023-02-04T02:50:38;99980.22;;;5.66;70.97
41800;BME280;27468;47.460;19.034;2023-02-04T02:53:09;100008.97;;;5.67;70.79
41800;BME280;27468;47.460;19.034;2023-02-04T02:55:34;99963.63;;;5.68;70.81
41800;BME280;27468;47.460;19.034;2023-02-04T02:58:00;99948.00;;;5.57;70.85
41800;BME280;27468;47.460;19.034;2023-02-04T03:00:27;100003.63;;;5.84;70.77
41800;BME280;27468;47.460;19.034;2023-02-04T03:05:24;99979.19;;;5.83;70.71
41800;BME280;27468;47.460;19.034;2023-02-04T03:07:51;99990.53;;;5.85;70.95
41800;BME280;27468;47.460;19.034;2023-02-04T03:10:17;99994.88;;;5.85;71.13
41800;BME280;27468;47.460;19.034;2023-02-04T03:12:43;100000.16;;;5.80;71.49
41800;BME280;27468;47.460;19.034;2023-02-04T03:15:10;99977.47;;;5.82;71.65
41800;BME280;27468;47.460;19.034;2023-02-04T03:17:36;99981.81;;;5.82;72.16
41800;BME280;27468;47.460;19.034;2023-02-04T03:20:02;99975.72;;;5.83;72.61
41800;BME280;27468;47.460;19.034;2023-02-04T03:22:28;99907.97;;;5.51;73.52
41800;BME280;27468;47.460;19.034;2023-02-04T03:24:54;99976.59;;;5.80;74.10
41800;BME280;27468;47.460;19.034;2023-02-04T03:27:22;99999.25;;;5.83;74.45
41800;BME280;27468;47.460;19.034;2023-02-04T03:29:48;99979.28;;;5.76;76.62
41800;BME280;27468;47.460;19.034;2023-02-04T03:32:13;99955.84;;;5.62;77.92
41800;BME280;27468;47.460;19.034;2023-02-04T03:34:39;99974.09;;;5.67;78.57
41800;BME280;27468;47.460;19.034;2023-02-04T03:37:04;99978.47;;;5.64;78.44
41800;BME280;27468;47.460;19.034;2023-02-04T03:39:29;99984.59;;;5.63;78.64
41800;BME280;27468;47.460;19.034;2023-02-04T03:41:55;99970.66;;;5.60;79.14
41800;BME280;27468;47.460;19.034;2023-02-04T03:44:20;99964.59;;;5.55;78.52
41800;BME280;27468;47.460;19.034;2023-02-04T03:46:46;99975.88;;;5.64;78.65
41800;BME280;27468;47.460;19.034;2023-02-04T03:49:11;99985.47;;;5.64;80.10
41800;BME280;27468;47.460;19.034;2023-02-04T03:51:37;99994.22;;;5.58;79.38
41800;BME280;27468;47.460;19.034;2023-02-04T03:54:02;99984.59;;;5.60;78.82
41800;BME280;27468;47.460;19.034;2023-02-04T03:56:28;99974.22;;;5.50;79.37
41800;BME280;27468;47.460;19.034;2023-02-04T03:58:53;99988.13;;;5.56;80.49
41800;BME280;27468;47.460;19.034;2023-02-04T04:01:19;99984.66;;;5.53;80.55
41800;BME280;27468;47.460;19.034;2023-02-04T04:03:44;99964.66;;;5.41;80.49
41800;BME280;27468;47.460;19.034;2023-02-04T04:06:10;99922.94;;;5.24;81.05
41800;BME280;27468;47.460;19.034;2023-02-04T04:08:36;99977.69;;;5.52;80.40
41800;BME280;27468;47.460;19.034;2023-02-04T04:11:02;99970.72;;;5.48;80.41
41800;BME280;27468;47.460;19.034;2023-02-04T04:13:27;100008.19;;;5.51;80.30
41800;BME280;27468;47.460;19.034;2023-02-04T04:15:53;99985.53;;;5.50;81.07
41800;BME280;27468;47.460;19.034;2023-02-04T04:18:18;99928.19;;;5.21;82.91
41800;BME280;27468;47.460;19.034;2023-02-04T04:20:44;99956.81;;;5.41;82.83
41800;BME280;27468;47.460;19.034;2023-02-04T04:23:09;99968.16;;;5.40;82.67
41800;BME280;27468;47.460;19.034;2023-02-04T04:25:34;99935.16;;;5.21;83.14
41800;BME280;27468;47.460;19.034;2023-02-04T04:28:00;99902.19;;;5.00;83.78
41800;BME280;27468;47.460;19.034;2023-02-04T04:30:25;99965.56;;;5.39;83.03
41800;BME280;27468;47.460;19.034;2023-02-04T04:32:50;99937.75;;;5.24;82.81
41800;BME280;27468;47.460;19.034;2023-02-04T04:35:16;99949.00;;;5.35;82.45
41800;BME280;27468;47.460;19.034;2023-02-04T04:37:41;99935.09;;;5.31;82.49
41800;BME280;27468;47.460;19.034;2023-02-04T04:40:10;99931.56;;;5.40;81.09
41800;BME280;27468;47.460;19.034;2023-02-04T04:42:35;99953.34;;;5.42;79.96
41800;BME280;27468;47.460;19.034;2023-02-04T04:45:02;99921.16;;;5.29;78.52
41800;BME280;27468;47.460;19.034;2023-02-04T04:47:27;99908.09;;;5.29;78.43
41800;BME280;27468;47.460;19.034;2023-02-04T04:49:52;99889.81;;;5.26;77.97
41800;BME280;27468;47.460;19.034;2023-02-04T04:52:18;99940.25;;;5.44;77.65
41800;BME280;27468;47.460;19.034;2023-02-04T04:54:43;99941.13;;;5.46;77.56
41800;BME280;27468;47.460;19.034;2023-02-04T04:57:09;99932.41;;;5.42;77.21
41800;BME280;27468;47.460;19.034;2023-02-04T04:59:34;99939.38;;;5.43;75.69
41800;BME280;27468;47.460;19.034;2023-02-04T05:01:59;99925.47;;;5.38;76.00
41800;BME280;27468;47.460;19.034;2023-02-04T05:04:25;99918.47;;;5.45;75.92
41800;BME280;27468;47.460;19.034;2023-02-04T05:06:50;99900.22;;;5.37;74.29
41800;BME280;27468;47.460;19.034;2023-02-04T05:09:16;99954.06;;;5.64;73.29
41800;BME280;27468;47.460;19.034;2023-02-04T05:11:41;99941.88;;;5.64;73.25
41800;BME280;27468;47.460;19.034;2023-02-04T05:14:07;99947.94;;;5.71;73.45
41800;BME280;27468;47.460;19.034;2023-02-04T05:16:32;99942.69;;;5.71;73.40
41800;BME280;27468;47.460;19.034;2023-02-04T05:18:57;99886.25;;;5.41;73.10
41800;BME280;27468;47.460;19.034;2023-02-04T05:21:23;99942.72;;;5.68;73.26
41800;BME280;27468;47.460;19.034;2023-02-04T05:23:48;99922.59;;;5.76;72.22
41800;BME280;27468;47.460;19.034;2023-02-04T05:26:13;99890.53;;;5.53;72.09
41800;BME280;27468;47.460;19.034;2023-02-04T05:28:39;99917.44;;;5.67;72.41
41800;BME280;27468;47.460;19.034;2023-02-04T05:31:04;99903.56;;;5.57;73.02
41800;BME280;27468;47.460;19.034;2023-02-04T05:33:30;99924.44;;;5.65;73.01
41800;BME280;27468;47.460;19.034;2023-02-04T05:35:55;99921.84;;;5.59;72.46
41800;BME280;27468;47.460;19.034;2023-02-04T05:38:20;99891.34;;;5.61;71.82
41800;BME280;27468;47.460;19.034;2023-02-04T05:40:46;99924.44;;;5.65;72.60
41800;BME280;27468;47.460;19.034;2023-02-04T05:43:11;99893.13;;;5.53;73.66
41800;BME280;27468;47.460;19.034;2023-02-04T05:45:37;99893.97;;;5.59;74.79
41800;BME280;27468;47.460;19.034;2023-02-04T05:48:02;99906.19;;;5.57;76.38
41800;BME280;27468;47.460;19.034;2023-02-04T05:50:28;99897.53;;;5.46;75.45
41800;BME280;27468;47.460;19.034;2023-02-04T05:52:53;99869.00;;;5.19;75.30
41800;BME280;27468;47.460;19.034;2023-02-04T05:55:19;99894.97;;;5.37;74.75
41800;BME280;27468;47.460;19.034;2023-02-04T05:57:44;99889.81;;;5.26;74.46
41800;BME280;27468;47.460;19.034;2023-02-04T06:00:10;99884.59;;;5.25;73.96
41800;BME280;27468;47.460;19.034;2023-02-04T06:02:36;99893.28;;;5.30;73.05
41800;BME280;27468;47.460;19.034;2023-02-04T06:05:01;99868.13;;;5.17;72.09
41800;BME280;27468;47.460;19.034;2023-02-04T06:07:26;99875.97;;;5.18;71.55
41800;BME280;27468;47.460;19.034;2023-02-04T06:09:52;99860.44;;;4.92;70.94
41800;BME280;27468;47.460;19.034;2023-02-04T06:12:17;99919.47;;;5.22;69.86
41800;BME280;27468;47.460;19.034;2023-02-04T06:14:43;99946.56;;;5.08;69.30
41800;BME280;27468;47.460;19.034;2023-02-04T06:17:08;99897.00;;;4.92;67.96
41800;BME280;27468;47.460;19.034;2023-02-04T06:19:33;99920.53;;;4.86;67.81
41800;BME280;27468;47.460;19.034;2023-02-04T06:21:59;99907.50;;;4.79;67.89
41800;BME280;27468;47.460;19.034;2023-02-04T06:24:24;99920.59;;;4.63;67.81
41800;BME280;27468;47.460;19.034;2023-02-04T06:26:50;99995.38;;;4.96;67.88
41800;BME280;27468;47.460;19.034;2023-02-04T06:29:15;99991.91;;;4.94;68.16
41800;BME280;27468;47.460;19.034;2023-02-04T06:31:40;100004.97;;;4.88;68.08
41800;BME280;27468;47.460;19.034;2023-02-04T06:34:06;99984.13;;;4.65;67.61
41800;BME280;27468;47.460;19.034;2023-02-04T06:36:31;100017.22;;;4.63;67.59
41800;BME280;27468;47.460;19.034;2023-02-04T06:38:57;100048.50;;;4.85;67.09
41800;BME280;27468;47.460;19.034;2023-02-04T06:41:22;100030.25;;;4.74;67.34
41800;BME280;27468;47.460;19.034;2023-02-04T06:43:48;100007.69;;;4.58;67.85
41800;BME280;27468;47.460;19.034;2023-02-04T06:46:13;100031.97;;;4.86;67.46
41800;BME280;27468;47.460;19.034;2023-02-04T06:48:39;100070.28;;;4.87;67.54
41800;BME280;27468;47.460;19.034;2023-02-04T06:51:05;100071.16;;;4.87;66.92
41800;BME280;27468;47.460;19.034;2023-02-04T06:53:30;100078.09;;;4.87;66.43
41800;BME280;27468;47.460;19.034;2023-02-04T06:55:55;100093.78;;;4.84;66.34
41800;BME280;27468;47.460;19.034;2023-02-04T06:58:21;100082.47;;;4.85;66.49
41800;BME280;27468;47.460;19.034;2023-02-04T07:00:46;100091.16;;;4.87;66.81
41800;BME280;27468;47.460;19.034;2023-02-04T07:03:12;100096.41;;;4.87;65.77
41800;BME280;27468;47.460;19.034;2023-02-04T07:05:37;100053.78;;;4.62;65.23
41800;BME280;27468;47.460;19.034;2023-02-04T07:08:03;100104.22;;;4.79;64.68
41800;BME280;27468;47.460;19.034;2023-02-04T07:10:28;100050.31;;;4.61;64.40
41800;BME280;27468;47.460;19.034;2023-02-04T07:12:54;100083.34;;;4.88;64.27
41800;BME280;27468;47.460;19.034;2023-02-04T07:15:19;100088.56;;;4.91;63.78
41800;BME280;27468;47.460;19.034;2023-02-04T07:17:45;100122.53;;;4.81;63.49
41800;BME280;27468;47.460;19.034;2023-02-04T07:20:10;100126.88;;;4.73;63.11
41800;BME280;27468;47.460;19.034;2023-02-04T07:22:36;100117.31;;;4.61;62.79
41800;BME280;27468;47.460;19.034;2023-02-04T07:25:02;100136.47;;;4.55;61.84
41800;BME280;27468;47.460;19.034;2023-02-04T07:27:27;100115.56;;;4.45;62.50
41800;BME280;27468;47.460;19.034;2023-02-04T07:29:52;100111.22;;;4.38;63.43
41800;BME280;27468;47.460;19.034;2023-02-04T07:32:18;100081.63;;;4.02;62.74
41800;BME280;27468;47.460;19.034;2023-02-04T07:34:43;100087.69;;;4.06;62.55
41800;BME280;27468;47.460;19.034;2023-02-04T07:37:09;100106.81;;;4.05;62.13
41800;BME280;27468;47.460;19.034;2023-02-04T07:39:34;100163.38;;;4.24;62.39
41800;BME280;27468;47.460;19.034;2023-02-04T07:41:59;100174.69;;;4.21;62.86
41800;BME280;27468;47.460;19.034;2023-02-04T07:44:25;100163.38;;;4.21;62.22
41800;BME280;27468;47.460;19.034;2023-02-04T07:46:50;100165.13;;;4.23;61.67
41800;BME280;27468;47.460;19.034;2023-02-04T07:49:16;100173.84;;;4.33;61.48
41800;BME280;27468;47.460;19.034;2023-02-04T07:51:41;100147.75;;;4.33;60.96
41800;BME280;27468;47.460;19.034;2023-02-04T07:54:06;100131.22;;;4.26;60.05
41800;BME280;27468;47.460;19.034;2023-02-04T07:56:32;100140.81;;;4.50;59.18
41800;BME280;27468;47.460;19.034;2023-02-04T07:58:57;100160.84;;;4.57;58.45
41800;BME280;27468;47.460;19.034;2023-02-04T08:01:23;100106.88;;;4.50;57.58
41800;BME280;27468;47.460;19.034;2023-02-04T08:03:48;100123.41;;;4.51;57.44
41800;BME280;27468;47.460;19.034;2023-02-04T08:06:13;100149.50;;;4.71;56.87
41800;BME280;27468;47.460;19.034;2023-02-04T08:08:39;100166.94;;;4.59;56.75
41800;BME280;27468;47.460;19.034;2023-02-04T08:11:04;100159.06;;;4.65;56.49
41800;BME280;27468;47.460;19.034;2023-02-04T08:13:30;100139.06;;;4.55;56.48
41800;BME280;27468;47.460;19.034;2023-02-04T08:15:55;100136.44;;;4.32;56.36
41800;BME280;27468;47.460;19.034;2023-02-04T08:18:20;100201.75;;;4.60;56.09
41800;BME280;27468;47.460;19.034;2023-02-04T08:20:46;100162.56;;;4.54;56.34
41800;BME280;27468;47.460;19.034;2023-02-04T08:23:11;100176.50;;;4.48;55.98
41800;BME280;27468;47.460;19.034;2023-02-04T08:25:37;100142.47;;;4.15;55.90
41800;BME280;27468;47.460;19.034;2023-02-04T08:28:02;100224.34;;;4.53;56.60
41800;BME280;27468;47.460;19.034;2023-02-04T08:30:28;100190.38;;;4.30;56.44
41800;BME280;27468;47.460;19.034;2023-02-04T08:32:54;100189.50;;;4.36;56.42
41800;BME280;27468;47.460;19.034;2023-02-04T08:35:19;100246.09;;;4.49;55.53
41800;BME280;27468;47.460;19.034;2023-02-04T08:37:45;100202.50;;;4.16;55.84
41800;BME280;27468;47.460;19.034;2023-02-04T08:40:10;100253.03;;;4.44;55.25
41800;BME280;27468;47.460;19.034;2023-02-04T08:42:36;100213.81;;;4.15;55.23
41800;BME280;27468;47.460;19.034;2023-02-04T08:45:01;100267.88;;;4.53;55.25
41800;BME280;27468;47.460;19.034;2023-02-04T08:47:28;100266.13;;;4.50;54.75
41800;BME280;27468;47.460;19.034;2023-02-04T08:49:53;100261.69;;;4.31;54.79
41800;BME280;27468;47.460;19.034;2023-02-04T08:52:19;100280.00;;;4.43;54.81
41800;BME280;27468;47.460;19.034;2023-02-04T08:54:44;100288.69;;;4.33;54.35
41800;BME280;27468;47.460;19.034;2023-02-04T08:57:10;100248.56;;;4.08;54.26
41800;BME280;27468;47.460;19.034;2023-02-04T08:59:35;100310.41;;;4.30;54.71
41800;BME280;27468;47.460;19.034;2023-02-04T09:02:00;100333.94;;;4.35;54.39
41800;BME280;27468;47.460;19.034;2023-02-04T09:04:27;100308.53;;;4.01;55.00
41800;BME280;27468;47.460;19.034;2023-02-04T09:06:53;100291.03;;;3.78;54.51
41800;BME280;27468;47.460;19.034;2023-02-04T09:09:19;100330.31;;;4.13;54.86
41800;BME280;27468;47.460;19.034;2023-02-04T09:11:44;100358.97;;;4.01;54.85
41800;BME280;27468;47.460;19.034;2023-02-04T09:14:10;100361.47;;;3.86;55.25
41800;BME280;27468;47.460;19.034;2023-02-04T09:16:35;100364.25;;;4.13;55.18
41800;BME280;27468;47.460;19.034;2023-02-04T09:19:01;100370.38;;;4.18;55.26
41800;BME280;27468;47.460;19.034;2023-02-04T09:21:27;100372.97;;;4.17;54.83
41800;BME280;27468;47.460;19.034;2023-02-04T09:23:53;100389.50;;;4.20;55.36
41800;BME280;27468;47.460;19.034;2023-02-04T09:26:19;100415.72;;;4.37;54.78
41800;BME280;27468;47.460;19.034;2023-02-04T09:28:44;100403.56;;;4.44;54.13
41800;BME280;27468;47.460;19.034;2023-02-04T09:31:10;100371.19;;;4.10;53.91
41800;BME280;27468;47.460;19.034;2023-02-04T09:33:36;100429.63;;;4.38;54.34
41800;BME280;27468;47.460;19.034;2023-02-04T09:36:02;100356.34;;;3.95;54.01
41800;BME280;27468;47.460;19.034;2023-02-04T09:38:28;100484.53;;;4.48;54.06
41800;BME280;27468;47.460;19.034;2023-02-04T09:40:57;100470.56;;;4.42;53.29
41800;BME280;27468;47.460;19.034;2023-02-04T09:43:26;100417.25;;;4.06;53.43
41800;BME280;27468;47.460;19.034;2023-02-04T09:45:54;100516.78;;;4.55;53.47
41800;BME280;27468;47.460;19.034;2023-02-04T09:48:21;100522.00;;;4.58;52.76
41800;BME280;27468;47.460;19.034;2023-02-04T09:50:48;100496.84;;;4.75;52.91
41800;BME280;27468;47.460;19.034;2023-02-04T09:53:20;100532.75;;;5.10;52.38
41800;BME280;27468;47.460;19.034;2023-02-04T09:55:48;100505.78;;;5.20;51.88
41800;BME280;27468;47.460;19.034;2023-02-04T09:58:18;100543.25;;;5.25;51.17
41800;BME280;27468;47.460;19.034;2023-02-04T10:01:16;100557.19;;;5.16;50.71
41800;BME280;27468;47.460;19.034;2023-02-04T10:03:44;100530.06;;;4.94;50.79
41800;BME280;27468;47.460;19.034;2023-02-04T10:06:16;100550.09;;;4.95;50.81
41800;BME280;27468;47.460;19.034;2023-02-04T10:08:43;100557.91;;;4.94;50.97
41800;BME280;27468;47.460;19.034;2023-02-04T10:11:10;100544.91;;;5.02;49.86
41800;BME280;27468;47.460;19.034;2023-02-04T10:13:38;100574.50;;;5.02;50.02
41800;BME280;27468;47.460;19.034;2023-02-04T10:16:13;100590.19;;;5.04;50.08
41800;BME280;27468;47.460;19.034;2023-02-04T10:18:39;100604.13;;;5.03;49.69
41800;BME280;27468;47.460;19.034;2023-02-04T10:23:54;100614.59;;;5.03;49.42
41800;BME280;27468;47.460;19.034;2023-02-04T10:26:21;100551.75;;;4.84;48.62
41800;BME280;27468;47.460;19.034;2023-02-04T10:28:47;100597.97;;;4.91;48.70
41800;BME280;27468;47.460;19.034;2023-02-04T10:31:39;100631.25;;;5.18;47.74
41800;BME280;27468;47.460;19.034;2023-02-04T10:34:08;100630.38;;;5.25;47.72
41800;BME280;27468;47.460;19.034;2023-02-04T10:36:34;100638.19;;;5.18;46.84
41800;BME280;27468;47.460;19.034;2023-02-04T10:39:05;100663.50;;;5.28;46.63
41800;BME280;27468;47.460;19.034;2023-02-04T10:41:31;100644.28;;;5.15;47.03
41800;BME280;27468;47.460;19.034;2023-02-04T10:44:13;100653.06;;;5.29;46.82
41800;BME280;27468;47.460;19.034;2023-02-04T10:46:39;100679.13;;;5.14;47.51
41800;BME280;27468;47.460;19.034;2023-02-04T10:49:18;100659.03;;;5.06;47.03
41800;BME280;27468;47.460;19.034;2023-02-04T10:51:44;100685.16;;;5.06;47.21
41800;BME280;27468;47.460;19.034;2023-02-04T10:54:12;100706.94;;;5.06;47.20
41800;BME280;27468;47.460;19.034;2023-02-04T10:57:10;100656.22;;;4.83;48.27
41800;BME280;27468;47.460;19.034;2023-02-04T10:59:38;100737.56;;;5.25;48.24
41800;BME280;27468;47.460;19.034;2023-02-04T11:04:49;100748.06;;;5.35;48.09
41800;BME280;27468;47.460;19.034;2023-02-04T11:07:14;100770.75;;;5.37;47.61
41800;BME280;27468;47.460;19.034;2023-02-04T11:09:40;100773.41;;;5.42;47.49
41800;BME280;27468;47.460;19.034;2023-02-04T11:12:19;100745.38;;;5.19;46.30
41800;BME280;27468;47.460;19.034;2023-02-04T11:14:54;100757.63;;;5.31;46.45
41800;BME280;27468;47.460;19.034;2023-02-04T11:17:20;100797.91;;;5.53;46.24
41800;BME280;27468;47.460;19.034;2023-02-04T11:19:46;100715.63;;;5.05;45.27
41800;BME280;27468;47.460;19.034;2023-02-04T11:22:42;100826.56;;;5.41;44.88
41800;BME280;27468;47.460;19.034;2023-02-04T11:25:33;100817.75;;;5.31;45.05
41800;BME280;27468;47.460;19.034;2023-02-04T11:28:00;100827.28;;;5.23;44.42
41800;BME280;27468;47.460;19.034;2023-02-04T11:30:31;100826.38;;;5.16;45.61
41800;BME280;27468;47.460;19.034;2023-02-04T11:33:03;100801.81;;;4.97;44.38
41800;BME280;27468;47.460;19.034;2023-02-04T11:35:29;100833.28;;;5.11;44.42
41800;BME280;27468;47.460;19.034;2023-02-04T11:37:55;100800.78;;;4.83;44.03
41800;BME280;27468;47.460;19.034;2023-02-04T11:40:35;100811.22;;;4.82;44.19
41800;BME280;27468;47.460;19.034;2023-02-04T11:43:08;100833.09;;;4.91;43.34
41800;BME280;27468;47.460;19.034;2023-02-04T11:45:36;100808.63;;;4.85;43.49
41800;BME280;27468;47.460;19.034;2023-02-04T11:48:09;100885.66;;;5.19;43.01
41800;BME280;27468;47.460;19.034;2023-02-04T11:50:36;100878.66;;;5.21;42.61
41800;BME280;27468;47.460;19.034;2023-02-04T11:53:03;100897.00;;;5.25;42.64
41800;BME280;27468;47.460;19.034;2023-02-04T11:55:31;100866.53;;;5.29;42.38
41800;BME280;27468;47.460;19.034;2023-02-04T11:57:59;100855.91;;;5.06;41.66
41800;BME280;27468;47.460;19.034;2023-02-04T12:00:29;100887.38;;;5.18;41.49
41800;BME280;27468;47.460;19.034;2023-02-04T12:03:01;100907.41;;;5.21;41.97
41800;BME280;27468;47.460;19.034;2023-02-04T12:05:39;100908.25;;;5.15;42.07
41800;BME280;27468;47.460;19.034;2023-02-04T12:10:37;100876.75;;;5.03;41.14
41800;BME280;27468;47.460;19.034;2023-02-04T12:13:11;100917.88;;;5.21;40.86
41800;BME280;27468;47.460;19.034;2023-02-04T12:15:37;100937.13;;;5.29;41.68
41800;BME280;27468;47.460;19.034;2023-02-04T12:18:08;100940.59;;;5.28;42.67
41800;BME280;27468;47.460;19.034;2023-02-04T12:20:37;100951.06;;;5.28;42.42
41800;BME280;27468;47.460;19.034;2023-02-04T12:23:03;100896.72;;;4.96;42.06
41800;BME280;27468;47.460;19.034;2023-02-04T12:25:29;100962.44;;;5.33;42.59
41800;BME280;27468;47.460;19.034;2023-02-04T12:27:55;100972.09;;;5.39;42.45
41800;BME280;27468;47.460;19.034;2023-02-04T12:30:22;100925.63;;;5.09;42.69
41800;BME280;27468;47.460;19.034;2023-02-04T12:32:47;100981.50;;;5.23;42.31
41800;BME280;27468;47.460;19.034;2023-02-04T12:35:13;100943.78;;;4.98;43.15
41800;BME280;27468;47.460;19.034;2023-02-04T12:37:39;100980.59;;;5.21;42.93
41800;BME280;27468;47.460;19.034;2023-02-04T12:40:04;100937.66;;;4.96;43.16
41800;BME280;27468;47.460;19.034;2023-02-04T12:42:30;100964.09;;;5.25;43.58
41800;BME280;27468;47.460;19.034;2023-02-04T12:44:55;100953.31;;;4.94;44.05
41800;BME280;27468;47.460;19.034;2023-02-04T12:47:21;100965.66;;;5.06;43.18
41800;BME280;27468;47.460;19.034;2023-02-04T12:49:46;101018.94;;;5.19;43.49
41800;BME280;27468;47.460;19.034;2023-02-04T12:52:12;100990.97;;;5.10;43.30
41800;BME280;27468;47.460;19.034;2023-02-04T12:54:37;101011.06;;;5.16;43.66
41800;BME280;27468;47.460;19.034;2023-02-04T12:57:03;101025.81;;;5.09;43.67
41800;BME280;27468;47.460;19.034;2023-02-04T12:59:28;101018.03;;;5.14;43.62